createdAt,value
2019-03-27T00:00:47.969Z,99.90
2019-03-27T00:04:52.946Z,99.90
2019-03-27T00:08:57.985Z,99.90
2019-03-27T00:13:02.977Z,99.90
2019-03-27T00:17:07.989Z,99.90
2019-03-27T00:21:13.010Z,99.90
2019-03-27T00:25:17.987Z,99.90
2019-03-27T00:29:22.985Z,99.90
2019-03-27T00:33:27.982Z,99.90
2019-03-27T00:37:34.081Z,99.90
2019-03-27T00:41:39.085Z,99.90
2019-03-27T00:45:44.085Z,99.90
2019-03-27T00:49:49.070Z,99.90
2019-03-27T00:53:54.068Z,99.90
2019-03-27T00:57:59.086Z,99.90
2019-03-27T01:02:04.146Z,99.90
2019-03-27T01:06:09.382Z,99.90
2019-03-27T01:10:14.702Z,99.90
2019-03-27T01:14:19.702Z,99.90
2019-03-27T01:18:24.780Z,99.90
2019-03-27T01:22:29.773Z,99.90
2019-03-27T01:26:34.816Z,99.90
2019-03-27T01:30:39.782Z,99.90
2019-03-27T01:34:44.846Z,99.90
2019-03-27T01:38:49.842Z,99.90
2019-03-27T01:42:54.829Z,99.90
2019-03-27T01:46:59.827Z,99.90
2019-03-27T01:51:04.905Z,99.90
2019-03-27T01:55:10.042Z,99.90
2019-03-27T01:59:15.042Z,99.90
2019-03-27T02:03:20.040Z,99.90
2019-03-27T02:07:25.044Z,99.90
2019-03-27T02:11:30.033Z,99.90
2019-03-27T02:15:35.010Z,99.90
2019-03-27T02:19:40.030Z,99.90
2019-03-27T02:23:45.037Z,99.90
2019-03-27T02:27:50.038Z,99.90
2019-03-27T02:31:55.052Z,99.90
2019-03-27T02:36:00.017Z,99.90
2019-03-27T02:40:07.270Z,99.90
2019-03-27T02:44:12.266Z,99.90
2019-03-27T02:48:17.275Z,99.90
2019-03-27T02:52:22.391Z,99.90
2019-03-27T02:56:27.450Z,99.90
2019-03-27T03:00:33.243Z,99.90
2019-03-27T03:04:38.240Z,99.90
2019-03-27T03:08:43.239Z,99.90
2019-03-27T03:12:48.305Z,99.90
2019-03-27T03:16:53.298Z,99.90
2019-03-27T03:20:58.278Z,99.90
2019-03-27T03:25:05.480Z,99.90
2019-03-27T03:29:10.478Z,99.90
2019-03-27T03:33:15.476Z,99.90
2019-03-27T03:37:20.471Z,99.90
2019-03-27T03:41:25.451Z,99.90
2019-03-27T03:45:30.451Z,99.90
2019-03-27T03:49:35.462Z,99.90
2019-03-27T03:53:40.537Z,99.90
2019-03-27T03:57:47.073Z,99.90
2019-03-27T04:01:54.152Z,99.90
2019-03-27T04:05:59.134Z,99.90
2019-03-27T04:10:05.369Z,99.90
2019-03-27T04:14:10.372Z,99.90
2019-03-27T04:18:15.383Z,99.90
2019-03-27T04:22:20.365Z,99.90
2019-03-27T04:26:25.342Z,99.90
2019-03-27T04:30:30.341Z,99.90
2019-03-27T04:34:35.342Z,99.90
2019-03-27T04:38:40.345Z,99.90
2019-03-27T04:42:45.345Z,99.90
2019-03-27T04:46:50.321Z,99.90
2019-03-27T04:50:55.322Z,99.90
2019-03-27T04:55:00.428Z,99.90
2019-03-27T04:59:05.386Z,99.90
2019-03-27T05:03:10.382Z,99.90
2019-03-27T05:07:15.353Z,99.90
2019-03-27T05:11:20.349Z,99.90
2019-03-27T05:15:25.464Z,99.90
2019-03-27T05:19:30.449Z,99.90
2019-03-27T05:23:35.447Z,99.90
2019-03-27T05:27:40.443Z,99.90
2019-03-27T05:31:45.451Z,99.90
2019-03-27T05:35:50.553Z,99.90
2019-03-27T05:39:55.554Z,99.90
2019-03-27T05:44:00.548Z,99.90
2019-03-27T05:48:05.593Z,99.90
2019-03-27T05:52:10.538Z,99.90
2019-03-27T05:56:15.537Z,99.90
2019-03-27T06:00:20.536Z,99.90
2019-03-27T06:04:25.563Z,99.90
2019-03-27T06:08:30.633Z,99.90
2019-03-27T06:12:35.774Z,99.90
2019-03-27T06:16:40.782Z,99.90
2019-03-27T06:20:45.797Z,99.90
2019-03-27T06:24:52.557Z,99.90
2019-03-27T06:28:57.554Z,99.90
2019-03-27T06:33:02.536Z,99.90
2019-03-27T06:37:07.544Z,99.90
2019-03-27T06:41:12.537Z,99.90
2019-03-27T06:45:17.910Z,99.90
2019-03-27T06:49:22.929Z,99.90
2019-03-27T06:53:27.944Z,99.90
2019-03-27T06:57:32.988Z,99.90
2019-03-27T07:01:37.978Z,99.90
2019-03-27T07:05:43.108Z,99.90
2019-03-27T07:09:48.118Z,99.90
2019-03-27T07:13:53.122Z,99.90
2019-03-27T07:17:58.101Z,99.90
2019-03-27T07:22:03.114Z,99.90
2019-03-27T07:26:08.133Z,99.90
2019-03-27T07:30:13.566Z,99.90
2019-03-27T07:34:18.563Z,99.90
2019-03-27T07:38:23.859Z,99.90
2019-03-27T07:42:29.128Z,99.90
2019-03-27T07:46:34.100Z,99.90
2019-03-27T07:50:39.101Z,99.90
2019-03-27T07:54:44.110Z,99.90
2019-03-27T07:58:49.174Z,99.90
2019-03-27T08:02:54.177Z,99.90
2019-03-27T08:06:59.172Z,99.90
2019-03-27T08:11:04.238Z,99.90
2019-03-27T08:15:09.673Z,99.90
2019-03-27T08:19:15.783Z,99.90
2019-03-27T08:23:20.789Z,99.90
2019-03-27T08:27:25.781Z,99.90
2019-03-27T08:31:30.773Z,99.90
2019-03-27T08:35:35.839Z,99.90
2019-03-27T08:39:40.838Z,99.90
2019-03-27T08:43:45.966Z,99.90
2019-03-27T08:47:50.966Z,99.90
2019-03-27T08:51:56.244Z,99.20
2019-03-27T08:56:01.302Z,98.30
2019-03-27T09:00:08.995Z,97.00
2019-03-27T09:04:14.246Z,95.60
2019-03-27T09:08:19.694Z,93.10
2019-03-27T09:12:24.981Z,90.60
2019-03-27T09:16:30.294Z,90.70
2019-03-27T09:20:35.709Z,91.30
2019-03-27T09:24:40.957Z,90.90
2019-03-27T09:28:46.225Z,90.20
2019-03-27T09:32:51.522Z,88.80
2019-03-27T09:36:57.184Z,89.20
2019-03-27T09:41:02.757Z,86.60
2019-03-27T09:45:11.754Z,86.70
2019-03-27T09:49:17.031Z,88.50
2019-03-27T09:53:22.349Z,85.60
2019-03-27T09:57:27.644Z,81.10
2019-03-27T10:01:32.941Z,77.50
2019-03-27T10:05:38.258Z,77.00
2019-03-27T10:09:43.521Z,74.20
2019-03-27T10:13:48.861Z,73.10
2019-03-27T10:17:54.328Z,75.00
2019-03-27T10:21:59.590Z,74.50
2019-03-27T10:26:05.057Z,77.30
2019-03-27T10:30:10.577Z,78.30
2019-03-27T10:34:15.842Z,80.00
2019-03-27T10:38:21.125Z,82.60
2019-03-27T10:42:26.412Z,84.00
2019-03-27T10:46:31.695Z,83.80
2019-03-27T10:50:37.050Z,88.00
2019-03-27T10:54:42.425Z,90.20
2019-03-27T10:58:47.682Z,90.80
2019-03-27T11:02:52.954Z,89.30
2019-03-27T11:06:58.314Z,84.50
2019-03-27T11:11:03.596Z,82.50
2019-03-27T11:15:10.984Z,82.30
2019-03-27T11:19:16.304Z,85.50
2019-03-27T11:23:21.588Z,87.40
2019-03-27T11:27:26.874Z,89.80
2019-03-27T11:31:32.167Z,90.50
2019-03-27T11:35:37.598Z,90.70
2019-03-27T11:39:43.231Z,90.70
2019-03-27T11:43:54.981Z,90.80
2019-03-27T11:47:59.891Z,90.00
2019-03-27T11:52:05.344Z,85.30
2019-03-27T11:56:11.108Z,83.00
2019-03-27T12:00:19.646Z,82.90
2019-03-27T12:04:34.620Z,82.30
2019-03-27T12:08:46.103Z,79.70
2019-03-27T12:12:54.284Z,77.30
2019-03-27T12:17:02.889Z,76.20
2019-03-27T12:21:12.130Z,74.90
2019-03-27T12:25:27.310Z,76.00
2019-03-27T12:29:32.806Z,76.30
2019-03-27T12:33:41.458Z,77.60
2019-03-27T12:37:53.976Z,78.60
2019-03-27T12:42:02.101Z,78.90
2019-03-27T12:46:11.815Z,80.40
2019-03-27T12:50:20.034Z,82.20
2019-03-27T12:54:27.288Z,84.70
2019-03-27T12:58:32.676Z,87.30
2019-03-27T13:02:39.601Z,86.00
2019-03-27T13:06:55.580Z,86.20
2019-03-27T13:10:59.414Z,83.60
2019-03-27T13:15:09.478Z,82.60
2019-03-27T13:19:20.926Z,79.60
2019-03-27T13:23:32.682Z,77.30
2019-03-27T13:27:41.465Z,74.90
2019-03-27T13:31:51.230Z,75.40
2019-03-27T13:35:59.458Z,76.00
2019-03-27T13:40:09.766Z,75.30
2019-03-27T13:44:36.849Z,76.40
2019-03-27T13:48:40.910Z,76.50
2019-03-27T13:52:47.494Z,76.50
2019-03-27T13:56:54.552Z,77.30
2019-03-27T14:01:08.737Z,78.40
2019-03-27T14:05:10.286Z,78.80
2019-03-27T14:09:20.163Z,79.00
2019-03-27T14:13:27.285Z,78.70
2019-03-27T14:17:37.141Z,77.10
2019-03-27T14:21:54.447Z,76.70
2019-03-27T14:26:02.887Z,76.30
2019-03-27T14:30:12.635Z,75.20
2019-03-27T14:34:24.419Z,75.60
2019-03-27T14:38:32.956Z,75.40
2019-03-27T14:42:45.476Z,76.60
2019-03-27T14:46:54.389Z,77.50
2019-03-27T14:51:06.012Z,78.50
2019-03-27T14:55:18.635Z,79.90
2019-03-27T14:59:28.802Z,79.70
2019-03-27T15:03:38.020Z,80.20
2019-03-27T15:07:55.232Z,79.10
2019-03-27T15:12:12.077Z,78.90
2019-03-27T15:16:22.880Z,77.90
2019-03-27T15:20:34.772Z,77.60
2019-03-27T15:24:41.436Z,78.00
2019-03-27T15:28:51.123Z,79.80
2019-03-27T15:33:01.353Z,80.80
2019-03-27T15:37:12.661Z,81.50
2019-03-27T15:41:23.320Z,81.40
2019-03-27T15:45:34.123Z,82.40
2019-03-27T15:49:41.614Z,82.30
2019-03-27T15:53:51.353Z,84.20
2019-03-27T15:57:57.857Z,85.60
2019-03-27T16:02:09.939Z,86.60
2019-03-27T16:06:21.931Z,87.50
2019-03-27T16:10:34.470Z,87.90
2019-03-27T16:14:46.192Z,89.10
2019-03-27T16:19:04.954Z,89.60
2019-03-27T16:23:11.555Z,89.80
2019-03-27T16:27:24.287Z,89.90
2019-03-27T16:31:33.993Z,90.00
2019-03-27T16:35:41.185Z,89.60
2019-03-27T16:39:52.467Z,89.20
2019-03-27T16:44:00.699Z,89.30
2019-03-27T16:48:08.691Z,89.60
2019-03-27T16:52:18.818Z,90.10
2019-03-27T16:56:30.179Z,90.40
2019-03-27T17:00:43.909Z,90.80
2019-03-27T17:04:49.470Z,90.80
2019-03-27T17:08:58.828Z,91.00
2019-03-27T17:13:06.327Z,91.10
2019-03-27T17:17:14.865Z,91.50
2019-03-27T17:21:23.483Z,91.80
2019-03-27T17:25:31.247Z,92.20
2019-03-27T17:29:43.841Z,92.20
2019-03-27T17:33:52.787Z,92.20
2019-03-27T17:42:35.108Z,92.70
2019-03-27T17:46:50.161Z,92.70
2019-03-27T17:50:56.897Z,92.90
2019-03-27T17:55:07.314Z,93.00
2019-03-27T17:59:14.706Z,93.20
2019-03-27T18:03:22.559Z,93.20
2019-03-27T18:07:30.328Z,93.20
2019-03-27T18:11:39.263Z,93.30
2019-03-27T18:15:46.276Z,93.40
2019-03-27T18:19:53.727Z,93.80
2019-03-27T18:24:00.869Z,93.60
2019-03-27T18:28:09.473Z,94.00
2019-03-27T18:32:23.962Z,93.60
2019-03-27T18:36:32.001Z,93.50
2019-03-27T18:40:44.369Z,93.60
2019-03-27T18:44:53.479Z,93.60
2019-03-27T18:49:04.624Z,93.60
2019-03-27T18:53:10.018Z,93.70
2019-03-27T18:57:25.294Z,93.60
2019-03-27T19:01:37.572Z,93.60
2019-03-27T19:05:47.372Z,93.70
2019-03-27T19:09:56.666Z,93.80
2019-03-27T19:14:05.423Z,93.80
2019-03-27T19:18:14.462Z,93.90
2019-03-27T19:22:28.580Z,94.10
2019-03-27T19:26:35.626Z,94.10
2019-03-27T19:30:45.144Z,94.20
2019-03-27T19:34:54.580Z,94.30
2019-03-27T19:39:01.165Z,94.30
2019-03-27T19:43:10.268Z,94.60
2019-03-27T19:47:18.989Z,94.60
2019-03-27T19:51:26.674Z,95.00
2019-03-27T19:55:40.075Z,95.20
2019-03-27T19:59:48.434Z,95.60
2019-03-27T20:03:59.843Z,96.00
2019-03-27T20:08:07.892Z,96.30
2019-03-27T20:12:15.981Z,96.30
2019-03-27T20:16:21.946Z,96.10
2019-03-27T20:20:28.729Z,95.90
2019-03-27T20:24:41.101Z,95.80
2019-03-27T20:28:49.203Z,95.70
2019-03-27T20:32:56.352Z,95.70
2019-03-27T20:37:02.114Z,95.50
2019-03-27T20:41:09.249Z,95.30
2019-03-27T20:45:19.391Z,95.20
2019-03-27T20:49:32.396Z,95.30
2019-03-27T20:53:45.959Z,95.10
2019-03-27T20:57:54.155Z,95.30
2019-03-27T21:02:05.753Z,94.70
2019-03-27T21:06:14.339Z,94.40
2019-03-27T21:10:20.822Z,94.40
2019-03-27T21:14:28.418Z,94.30
2019-03-27T21:18:35.658Z,94.30
2019-03-27T21:22:45.770Z,94.10
2019-03-27T21:26:55.546Z,93.80
2019-03-27T21:31:02.297Z,93.80
2019-03-27T21:35:10.739Z,93.80
2019-03-27T21:39:19.156Z,94.10
2019-03-27T21:43:24.612Z,94.40
2019-03-27T21:47:30.147Z,94.50
2019-03-27T21:51:37.649Z,94.50
2019-03-27T21:55:46.277Z,94.70
2019-03-27T21:59:58.305Z,95.40
2019-03-27T22:04:16.843Z,95.80
2019-03-27T22:08:31.007Z,96.30
2019-03-27T22:12:42.619Z,96.50
2019-03-27T22:16:48.060Z,96.60
2019-03-27T22:21:00.997Z,97.00
2019-03-27T22:25:09.518Z,97.00
2019-03-27T22:29:15.114Z,97.20
2019-03-27T22:33:27.393Z,97.60
2019-03-27T22:37:34.073Z,98.00
2019-03-27T22:41:40.942Z,98.20
2019-03-27T22:45:47.758Z,98.20
2019-03-27T22:49:55.966Z,98.40
2019-03-27T22:54:03.060Z,98.40
2019-03-27T22:58:13.084Z,98.30
2019-03-27T23:02:27.722Z,98.40
2019-03-27T23:06:37.855Z,98.50
2019-03-27T23:10:47.605Z,98.40
2019-03-27T23:15:04.287Z,98.20
2019-03-27T23:19:05.780Z,98.10
2019-03-27T23:23:14.324Z,97.90
2019-03-27T23:27:24.686Z,98.00
2019-03-27T23:31:32.928Z,98.00
2019-03-27T23:35:41.528Z,97.90
2019-03-27T23:39:48.825Z,98.00
2019-03-27T23:43:59.579Z,98.10
2019-03-27T23:48:08.426Z,98.20
2019-03-27T23:52:19.987Z,98.20
2019-03-27T23:56:31.125Z,98.20
